sensor_id;sensor_type;location;lat;lon;timestamp;P1;durP1;ratioP1;P2;durP2;ratioP2
32152;SDS011;18656;50.580;11.392;2023-06-22T00:00:03;18.02;;;14.82;;
32152;SDS011;18656;50.580;11.392;2023-06-22T00:05:04;18.02;;;16.17;;
32152;SDS011;18656;50.580;11.392;2023-06-22T00:07:34;18.48;;;16.55;;
32152;SDS011;18656;50.580;11.392;2023-06-22T00:10:01;17.83;;;16.15;;
32152;SDS011;18656;50.580;11.392;2023-06-22T00:12:29;16.15;;;14.65;;
32152;SDS011;18656;50.580;11.392;2023-06-22T00:14:56;19.90;;;16.15;;
32152;SDS011;18656;50.580;11.392;2023-06-22T00:17:23;16.52;;;14.85;;
32152;SDS011;18656;50.580;11.392;2023-06-22T00:19:53;17.73;;;15.95;;
32152;SDS011;18656;50.580;11.392;2023-06-22T00:22:21;18.10;;;15.88;;
32152;SDS011;18656;50.580;11.392;2023-06-22T00:27:22;17.77;;;15.90;;
32152;SDS011;18656;50.580;11.392;2023-06-22T00:29:49;19.20;;;17.20;;
32152;SDS011;18656;50.580;11.392;2023-06-22T00:32:16;17.38;;;15.60;;
32152;SDS011;18656;50.580;11.392;2023-06-22T00:34:45;16.58;;;14.85;;
32152;SDS011;18656;50.580;11.392;2023-06-22T00:37:12;16.92;;;15.23;;
32152;SDS011;18656;50.580;11.392;2023-06-22T00:39:39;17.40;;;15.60;;
32152;SDS011;18656;50.580;11.392;2023-06-22T00:42:06;18.38;;;16.30;;
32152;SDS011;18656;50.580;11.392;2023-06-22T00:44:34;17.88;;;16.08;;
32152;SDS011;18656;50.580;11.392;2023-06-22T00:47:02;17.95;;;16.17;;
32152;SDS011;18656;50.580;11.392;2023-06-22T00:49:29;19.08;;;17.08;;
32152;SDS011;18656;50.580;11.392;2023-06-22T00:51:57;17.85;;;16.05;;
32152;SDS011;18656;50.580;11.392;2023-06-22T00:54:24;20.10;;;18.27;;
32152;SDS011;18656;50.580;11.392;2023-06-22T00:56:53;20.40;;;18.50;;
32152;SDS011;18656;50.580;11.392;2023-06-22T00:59:23;20.08;;;17.13;;
32152;SDS011;18656;50.580;11.392;2023-06-22T01:01:51;19.67;;;16.85;;
32152;SDS011;18656;50.580;11.392;2023-06-22T01:04:18;18.17;;;16.20;;
32152;SDS011;18656;50.580;11.392;2023-06-22T01:06:47;19.05;;;17.08;;
32152;SDS011;18656;50.580;11.392;2023-06-22T01:09:22;18.75;;;16.92;;
32152;SDS011;18656;50.580;11.392;2023-06-22T01:11:53;20.25;;;17.25;;
32152;SDS011;18656;50.580;11.392;2023-06-22T01:14:28;18.15;;;16.40;;
32152;SDS011;18656;50.580;11.392;2023-06-22T01:16:57;18.33;;;16.63;;
32152;SDS011;18656;50.580;11.392;2023-06-22T01:19:41;18.23;;;16.55;;
32152;SDS011;18656;50.580;11.392;2023-06-22T01:22:10;19.48;;;17.45;;
32152;SDS011;18656;50.580;11.392;2023-06-22T01:27:17;19.13;;;17.25;;
32152;SDS011;18656;50.580;11.392;2023-06-22T01:29:50;18.73;;;16.85;;
32152;SDS011;18656;50.580;11.392;2023-06-22T01:32:18;18.60;;;16.80;;
32152;SDS011;18656;50.580;11.392;2023-06-22T01:34:46;18.98;;;16.80;;
32152;SDS011;18656;50.580;11.392;2023-06-22T01:37:14;19.27;;;17.35;;
32152;SDS011;18656;50.580;11.392;2023-06-22T01:39:42;24.33;;;18.63;;
32152;SDS011;18656;50.580;11.392;2023-06-22T01:42:09;21.95;;;18.45;;
32152;SDS011;18656;50.580;11.392;2023-06-22T01:44:37;20.83;;;18.27;;
32152;SDS011;18656;50.580;11.392;2023-06-22T01:47:04;20.27;;;18.15;;
32152;SDS011;18656;50.580;11.392;2023-06-22T01:49:32;19.95;;;18.05;;
32152;SDS011;18656;50.580;11.392;2023-06-22T01:51:59;18.60;;;16.60;;
32152;SDS011;18656;50.580;11.392;2023-06-22T01:54:26;19.33;;;17.30;;
32152;SDS011;18656;50.580;11.392;2023-06-22T01:56:53;20.45;;;18.38;;
32152;SDS011;18656;50.580;11.392;2023-06-22T01:59:29;20.85;;;18.65;;
32152;SDS011;18656;50.580;11.392;2023-06-22T02:02:02;24.55;;;18.55;;
32152;SDS011;18656;50.580;11.392;2023-06-22T02:04:34;21.00;;;18.90;;
32152;SDS011;18656;50.580;11.392;2023-06-22T02:07:01;21.73;;;18.13;;
32152;SDS011;18656;50.580;11.392;2023-06-22T02:09:32;20.73;;;18.45;;
32152;SDS011;18656;50.580;11.392;2023-06-22T02:12:01;21.05;;;18.88;;
32152;SDS011;18656;50.580;11.392;2023-06-22T02:14:29;19.85;;;17.77;;
32152;SDS011;18656;50.580;11.392;2023-06-22T02:16:56;19.90;;;17.95;;
32152;SDS011;18656;50.580;11.392;2023-06-22T02:19:26;19.95;;;17.85;;
32152;SDS011;18656;50.580;11.392;2023-06-22T02:21:53;21.58;;;19.02;;
32152;SDS011;18656;50.580;11.392;2023-06-22T02:24:20;21.35;;;18.33;;
32152;SDS011;18656;50.580;11.392;2023-06-22T02:26:49;22.23;;;19.92;;
32152;SDS011;18656;50.580;11.392;2023-06-22T02:29:16;19.73;;;17.55;;
32152;SDS011;18656;50.580;11.392;2023-06-22T02:31:44;20.80;;;18.90;;
32152;SDS011;18656;50.580;11.392;2023-06-22T02:34:11;22.10;;;19.75;;
32152;SDS011;18656;50.580;11.392;2023-06-22T02:36:45;22.53;;;19.87;;
32152;SDS011;18656;50.580;11.392;2023-06-22T02:39:21;20.58;;;17.92;;
32152;SDS011;18656;50.580;11.392;2023-06-22T02:41:52;19.88;;;17.77;;
32152;SDS011;18656;50.580;11.392;2023-06-22T02:44:20;20.13;;;17.85;;
32152;SDS011;18656;50.580;11.392;2023-06-22T02:46:47;20.05;;;17.95;;
32152;SDS011;18656;50.580;11.392;2023-06-22T02:49:15;20.17;;;18.23;;
32152;SDS011;18656;50.580;11.392;2023-06-22T02:51:44;20.77;;;18.63;;
32152;SDS011;18656;50.580;11.392;2023-06-22T02:54:12;20.15;;;18.05;;
32152;SDS011;18656;50.580;11.392;2023-06-22T02:56:39;19.98;;;17.80;;
32152;SDS011;18656;50.580;11.392;2023-06-22T02:59:07;19.60;;;17.65;;
32152;SDS011;18656;50.580;11.392;2023-06-22T03:01:34;20.90;;;18.77;;
32152;SDS011;18656;50.580;11.392;2023-06-22T03:04:04;21.20;;;19.00;;
32152;SDS011;18656;50.580;11.392;2023-06-22T03:06:31;22.38;;;19.05;;
32152;SDS011;18656;50.580;11.392;2023-06-22T03:08:59;21.38;;;19.33;;
32152;SDS011;18656;50.580;11.392;2023-06-22T03:11:27;22.25;;;20.17;;
32152;SDS011;18656;50.580;11.392;2023-06-22T03:13:54;23.98;;;21.52;;
32152;SDS011;18656;50.580;11.392;2023-06-22T03:16:21;25.23;;;21.75;;
32152;SDS011;18656;50.580;11.392;2023-06-22T03:18:48;23.77;;;21.25;;
32152;SDS011;18656;50.580;11.392;2023-06-22T03:21:16;23.88;;;21.40;;
32152;SDS011;18656;50.580;11.392;2023-06-22T03:23:43;23.27;;;20.73;;
32152;SDS011;18656;50.580;11.392;2023-06-22T03:26:10;21.92;;;19.63;;
32152;SDS011;18656;50.580;11.392;2023-06-22T03:28:38;23.85;;;19.80;;
32152;SDS011;18656;50.580;11.392;2023-06-22T03:31:05;21.02;;;18.88;;
32152;SDS011;18656;50.580;11.392;2023-06-22T03:33:33;20.63;;;18.42;;
32152;SDS011;18656;50.580;11.392;2023-06-22T03:36:00;21.35;;;18.63;;
32152;SDS011;18656;50.580;11.392;2023-06-22T03:38:27;21.10;;;18.40;;
32152;SDS011;18656;50.580;11.392;2023-06-22T03:40:55;20.50;;;18.40;;
32152;SDS011;18656;50.580;11.392;2023-06-22T03:43:22;22.10;;;19.80;;
32152;SDS011;18656;50.580;11.392;2023-06-22T03:45:49;25.65;;;21.75;;
32152;SDS011;18656;50.580;11.392;2023-06-22T03:48:17;20.00;;;18.10;;
32152;SDS011;18656;50.580;11.392;2023-06-22T03:50:44;20.30;;;18.25;;
32152;SDS011;18656;50.580;11.392;2023-06-22T03:53:11;18.55;;;16.63;;
32152;SDS011;18656;50.580;11.392;2023-06-22T03:55:45;17.73;;;15.93;;
32152;SDS011;18656;50.580;11.392;2023-06-22T03:58:15;20.90;;;16.52;;
32152;SDS011;18656;50.580;11.392;2023-06-22T04:00:43;18.88;;;16.92;;
32152;SDS011;18656;50.580;11.392;2023-06-22T04:03:10;19.00;;;16.70;;
32152;SDS011;18656;50.580;11.392;2023-06-22T04:05:39;18.60;;;15.95;;
32152;SDS011;18656;50.580;11.392;2023-06-22T04:08:06;18.50;;;16.73;;
32152;SDS011;18656;50.580;11.392;2023-06-22T04:10:33;20.30;;;18.30;;
32152;SDS011;18656;50.580;11.392;2023-06-22T04:13:01;22.45;;;18.13;;
32152;SDS011;18656;50.580;11.392;2023-06-22T04:15:28;19.00;;;16.70;;
32152;SDS011;18656;50.580;11.392;2023-06-22T04:17:58;19.27;;;17.27;;
32152;SDS011;18656;50.580;11.392;2023-06-22T04:20:25;19.85;;;17.63;;
32152;SDS011;18656;50.580;11.392;2023-06-22T04:22:55;19.77;;;17.52;;
32152;SDS011;18656;50.580;11.392;2023-06-22T04:25:22;21.65;;;19.35;;
32152;SDS011;18656;50.580;11.392;2023-06-22T04:27:49;21.33;;;19.05;;
32152;SDS011;18656;50.580;11.392;2023-06-22T04:30:17;21.80;;;19.58;;
32152;SDS011;18656;50.580;11.392;2023-06-22T04:32:44;24.08;;;19.58;;
32152;SDS011;18656;50.580;11.392;2023-06-22T04:35:12;23.67;;;21.17;;
32152;SDS011;18656;50.580;11.392;2023-06-22T04:37:39;22.67;;;20.42;;
32152;SDS011;18656;50.580;11.392;2023-06-22T04:40:07;26.58;;;20.35;;
32152;SDS011;18656;50.580;11.392;2023-06-22T04:42:34;22.25;;;19.50;;
32152;SDS011;18656;50.580;11.392;2023-06-22T04:45:03;21.92;;;19.73;;
32152;SDS011;18656;50.580;11.392;2023-06-22T04:47:30;24.90;;;20.10;;
32152;SDS011;18656;50.580;11.392;2023-06-22T04:49:58;24.65;;;22.05;;
32152;SDS011;18656;50.580;11.392;2023-06-22T04:52:25;26.83;;;22.23;;
32152;SDS011;18656;50.580;11.392;2023-06-22T04:54:52;23.10;;;20.42;;
32152;SDS011;18656;50.580;11.392;2023-06-22T04:57:24;22.23;;;19.92;;
32152;SDS011;18656;50.580;11.392;2023-06-22T04:59:58;22.10;;;19.83;;
32152;SDS011;18656;50.580;11.392;2023-06-22T05:02:39;22.63;;;20.23;;
32152;SDS011;18656;50.580;11.392;2023-06-22T05:05:06;22.95;;;20.50;;
32152;SDS011;18656;50.580;11.392;2023-06-22T05:07:34;25.63;;;20.00;;
32152;SDS011;18656;50.580;11.392;2023-06-22T05:10:02;26.75;;;20.10;;
32152;SDS011;18656;50.580;11.392;2023-06-22T05:12:30;23.58;;;18.77;;
32152;SDS011;18656;50.580;11.392;2023-06-22T05:14:57;21.15;;;18.85;;
32152;SDS011;18656;50.580;11.392;2023-06-22T05:17:24;19.90;;;16.55;;
32152;SDS011;18656;50.580;11.392;2023-06-22T05:19:52;19.70;;;16.30;;
32152;SDS011;18656;50.580;11.392;2023-06-22T05:22:19;21.98;;;15.82;;
32152;SDS011;18656;50.580;11.392;2023-06-22T05:24:46;18.17;;;15.18;;
32152;SDS011;18656;50.580;11.392;2023-06-22T05:27:14;18.13;;;13.77;;
32152;SDS011;18656;50.580;11.392;2023-06-22T05:29:41;16.35;;;12.23;;
32152;SDS011;18656;50.580;11.392;2023-06-22T05:32:09;15.77;;;13.32;;
32152;SDS011;18656;50.580;11.392;2023-06-22T05:34:36;13.65;;;12.10;;
32152;SDS011;18656;50.580;11.392;2023-06-22T05:37:04;13.80;;;10.90;;
32152;SDS011;18656;50.580;11.392;2023-06-22T05:39:32;16.55;;;11.73;;
32152;SDS011;18656;50.580;11.392;2023-06-22T05:41:59;15.30;;;11.27;;
32152;SDS011;18656;50.580;11.392;2023-06-22T05:44:26;11.57;;;10.50;;
32152;SDS011;18656;50.580;11.392;2023-06-22T05:46:54;11.82;;;10.63;;
32152;SDS011;18656;50.580;11.392;2023-06-22T05:49:21;14.55;;;12.55;;
32152;SDS011;18656;50.580;11.392;2023-06-22T05:51:49;14.95;;;13.43;;
32152;SDS011;18656;50.580;11.392;2023-06-22T05:54:16;14.25;;;12.25;;
32152;SDS011;18656;50.580;11.392;2023-06-22T05:56:44;11.60;;;10.48;;
32152;SDS011;18656;50.580;11.392;2023-06-22T05:59:11;11.00;;;10.10;;
32152;SDS011;18656;50.580;11.392;2023-06-22T06:01:38;14.27;;;10.90;;
32152;SDS011;18656;50.580;11.392;2023-06-22T06:04:06;20.50;;;11.82;;
32152;SDS011;18656;50.580;11.392;2023-06-22T06:06:36;14.77;;;11.30;;
32152;SDS011;18656;50.580;11.392;2023-06-22T06:09:04;12.82;;;11.55;;
32152;SDS011;18656;50.580;11.392;2023-06-22T06:11:31;14.07;;;11.18;;
32152;SDS011;18656;50.580;11.392;2023-06-22T06:13:58;11.40;;;10.32;;
32152;SDS011;18656;50.580;11.392;2023-06-22T06:16:26;12.10;;;10.80;;
32152;SDS011;18656;50.580;11.392;2023-06-22T06:18:53;11.73;;;10.52;;
32152;SDS011;18656;50.580;11.392;2023-06-22T06:21:22;11.10;;;10.10;;
32152;SDS011;18656;50.580;11.392;2023-06-22T06:23:49;12.88;;;10.52;;
32152;SDS011;18656;50.580;11.392;2023-06-22T06:26:16;11.20;;;9.98;;
32152;SDS011;18656;50.580;11.392;2023-06-22T06:28:44;10.55;;;9.55;;
32152;SDS011;18656;50.580;11.392;2023-06-22T06:31:11;13.85;;;9.82;;
32152;SDS011;18656;50.580;11.392;2023-06-22T06:33:43;9.57;;;8.63;;
32152;SDS011;18656;50.580;11.392;2023-06-22T06:36:10;10.68;;;9.50;;
32152;SDS011;18656;50.580;11.392;2023-06-22T06:38:37;9.35;;;8.52;;
32152;SDS011;18656;50.580;11.392;2023-06-22T06:41:05;10.10;;;9.10;;
32152;SDS011;18656;50.580;11.392;2023-06-22T06:43:32;9.93;;;8.93;;
32152;SDS011;18656;50.580;11.392;2023-06-22T06:45:59;9.05;;;8.30;;
32152;SDS011;18656;50.580;11.392;2023-06-22T06:48:26;10.25;;;9.15;;
32152;SDS011;18656;50.580;11.392;2023-06-22T06:50:54;9.88;;;8.90;;
32152;SDS011;18656;50.580;11.392;2023-06-22T06:53:21;10.63;;;9.48;;
32152;SDS011;18656;50.580;11.392;2023-06-22T06:55:49;10.63;;;9.63;;
32152;SDS011;18656;50.580;11.392;2023-06-22T06:58:16;10.63;;;9.63;;
32152;SDS011;18656;50.580;11.392;2023-06-22T07:00:43;10.70;;;9.65;;
32152;SDS011;18656;50.580;11.392;2023-06-22T07:03:10;13.18;;;9.55;;
32152;SDS011;18656;50.580;11.392;2023-06-22T07:05:38;11.43;;;10.05;;
32152;SDS011;18656;50.580;11.392;2023-06-22T07:08:05;10.07;;;9.15;;
32152;SDS011;18656;50.580;11.392;2023-06-22T07:10:32;11.15;;;9.02;;
32152;SDS011;18656;50.580;11.392;2023-06-22T07:13:00;10.10;;;8.82;;
32152;SDS011;18656;50.580;11.392;2023-06-22T07:15:27;8.82;;;8.13;;
32152;SDS011;18656;50.580;11.392;2023-06-22T07:17:54;9.93;;;8.18;;
32152;SDS011;18656;50.580;11.392;2023-06-22T07:20:22;8.50;;;7.70;;
32152;SDS011;18656;50.580;11.392;2023-06-22T07:22:49;11.23;;;8.45;;
32152;SDS011;18656;50.580;11.392;2023-06-22T07:25:16;11.13;;;7.57;;
32152;SDS011;18656;50.580;11.392;2023-06-22T07:27:44;8.45;;;7.65;;
32152;SDS011;18656;50.580;11.392;2023-06-22T07:30:12;7.38;;;6.68;;
32152;SDS011;18656;50.580;11.392;2023-06-22T07:32:40;7.90;;;6.93;;
32152;SDS011;18656;50.580;11.392;2023-06-22T07:35:08;20.25;;;8.30;;
32152;SDS011;18656;50.580;11.392;2023-06-22T07:37:35;11.95;;;7.28;;
32152;SDS011;18656;50.580;11.392;2023-06-22T07:40:03;7.57;;;6.07;;
32152;SDS011;18656;50.580;11.392;2023-06-22T07:42:32;6.68;;;6.07;;
32152;SDS011;18656;50.580;11.392;2023-06-22T07:45:00;7.30;;;6.60;;
32152;SDS011;18656;50.580;11.392;2023-06-22T07:47:28;6.75;;;6.05;;
32152;SDS011;18656;50.580;11.392;2023-06-22T07:49:57;7.53;;;6.78;;
32152;SDS011;18656;50.580;11.392;2023-06-22T07:52:27;11.70;;;5.90;;
32152;SDS011;18656;50.580;11.392;2023-06-22T07:54:55;7.22;;;5.50;;
32152;SDS011;18656;50.580;11.392;2023-06-22T07:57:22;5.75;;;5.00;;
32152;SDS011;18656;50.580;11.392;2023-06-22T07:59:49;11.40;;;5.78;;
32152;SDS011;18656;50.580;11.392;2023-06-22T08:02:17;6.95;;;5.55;;
32152;SDS011;18656;50.580;11.392;2023-06-22T08:04:44;4.70;;;4.40;;
32152;SDS011;18656;50.580;11.392;2023-06-22T08:07:12;6.97;;;5.28;;
32152;SDS011;18656;50.580;11.392;2023-06-22T08:09:39;4.93;;;4.63;;
32152;SDS011;18656;50.580;11.392;2023-06-22T08:12:12;5.35;;;4.95;;
32152;SDS011;18656;50.580;11.392;2023-06-22T08:14:41;5.60;;;5.05;;
32152;SDS011;18656;50.580;11.392;2023-06-22T08:17:09;5.13;;;4.75;;
32152;SDS011;18656;50.580;11.392;2023-06-22T08:19:37;6.88;;;4.32;;
32152;SDS011;18656;50.580;11.392;2023-06-22T08:22:04;5.35;;;4.95;;
32152;SDS011;18656;50.580;11.392;2023-06-22T08:24:32;4.85;;;4.45;;
32152;SDS011;18656;50.580;11.392;2023-06-22T08:26:59;5.15;;;4.28;;
32152;SDS011;18656;50.580;11.392;2023-06-22T08:29:27;4.50;;;4.10;;
32152;SDS011;18656;50.580;11.392;2023-06-22T08:31:54;5.05;;;4.55;;
32152;SDS011;18656;50.580;11.392;2023-06-22T08:34:21;6.05;;;4.35;;
32152;SDS011;18656;50.580;11.392;2023-06-22T08:36:49;5.03;;;4.43;;
32152;SDS011;18656;50.580;11.392;2023-06-22T08:39:18;7.50;;;4.50;;
32152;SDS011;18656;50.580;11.392;2023-06-22T08:41:46;4.32;;;4.00;;
32152;SDS011;18656;50.580;11.392;2023-06-22T08:44:15;4.60;;;4.30;;
32152;SDS011;18656;50.580;11.392;2023-06-22T08:46:42;4.63;;;4.30;;
32152;SDS011;18656;50.580;11.392;2023-06-22T08:49:09;4.65;;;4.25;;
32152;SDS011;18656;50.580;11.392;2023-06-22T08:51:37;4.30;;;4.00;;
32152;SDS011;18656;50.580;11.392;2023-06-22T08:54:04;7.63;;;4.13;;
32152;SDS011;18656;50.580;11.392;2023-06-22T08:56:31;4.13;;;3.90;;
32152;SDS011;18656;50.580;11.392;2023-06-22T08:58:58;6.63;;;4.30;;
32152;SDS011;18656;50.580;11.392;2023-06-22T09:01:27;5.18;;;4.68;;
32152;SDS011;18656;50.580;11.392;2023-06-22T09:03:54;5.18;;;4.78;;
32152;SDS011;18656;50.580;11.392;2023-06-22T09:06:24;6.07;;;4.55;;
32152;SDS011;18656;50.580;11.392;2023-06-22T09:08:51;4.88;;;4.55;;
32152;SDS011;18656;50.580;11.392;2023-06-22T09:11:19;5.10;;;4.22;;
32152;SDS011;18656;50.580;11.392;2023-06-22T09:13:46;5.05;;;4.55;;
32152;SDS011;18656;50.580;11.392;2023-06-22T09:16:13;4.63;;;4.22;;
32152;SDS011;18656;50.580;11.392;2023-06-22T09:18:40;4.60;;;4.20;;
32152;SDS011;18656;50.580;11.392;2023-06-22T09:21:08;7.45;;;4.50;;
32152;SDS011;18656;50.580;11.392;2023-06-22T09:23:35;19.95;;;5.00;;
32152;SDS011;18656;50.580;11.392;2023-06-22T09:26:02;4.70;;;4.40;;
32152;SDS011;18656;50.580;11.392;2023-06-22T09:28:30;5.03;;;4.32;;
32152;SDS011;18656;50.580;11.392;2023-06-22T09:30:57;4.55;;;4.13;;
32152;SDS011;18656;50.580;11.392;2023-06-22T09:33:25;5.28;;;4.78;;
32152;SDS011;18656;50.580;11.392;2023-06-22T09:35:53;4.50;;;4.20;;
32152;SDS011;18656;50.580;11.392;2023-06-22T09:38:20;8.05;;;4.05;;
32152;SDS011;18656;50.580;11.392;2023-06-22T09:40:48;4.78;;;4.15;;
32152;SDS011;18656;50.580;11.392;2023-06-22T09:43:15;4.90;;;4.07;;
32152;SDS011;18656;50.580;11.392;2023-06-22T09:45:42;5.03;;;4.55;;
32152;SDS011;18656;50.580;11.392;2023-06-22T09:48:12;5.88;;;4.03;;
32152;SDS011;18656;50.580;11.392;2023-06-22T09:50:39;4.85;;;4.45;;
32152;SDS011;18656;50.580;11.392;2023-06-22T09:53:07;4.50;;;4.00;;
32152;SDS011;18656;50.580;11.392;2023-06-22T09:55:34;4.32;;;4.03;;
32152;SDS011;18656;50.580;11.392;2023-06-22T09:58:01;4.50;;;4.10;;
32152;SDS011;18656;50.580;11.392;2023-06-22T10:00:29;5.90;;;4.28;;
32152;SDS011;18656;50.580;11.392;2023-06-22T10:02:57;6.93;;;4.10;;
32152;SDS011;18656;50.580;11.392;2023-06-22T10:05:26;3.90;;;3.60;;
32152;SDS011;18656;50.580;11.392;2023-06-22T10:07:54;3.95;;;3.60;;
32152;SDS011;18656;50.580;11.392;2023-06-22T10:10:21;4.97;;;3.60;;
32152;SDS011;18656;50.580;11.392;2023-06-22T10:12:54;3.40;;;3.20;;
32152;SDS011;18656;50.580;11.392;2023-06-22T10:15:24;3.40;;;3.13;;
32152;SDS011;18656;50.580;11.392;2023-06-22T10:17:53;5.82;;;3.60;;
32152;SDS011;18656;50.580;11.392;2023-06-22T10:20:21;5.50;;;3.88;;
32152;SDS011;18656;50.580;11.392;2023-06-22T10:22:48;6.25;;;4.00;;
32152;SDS011;18656;50.580;11.392;2023-06-22T10:25:17;5.55;;;3.20;;
32152;SDS011;18656;50.580;11.392;2023-06-22T10:27:44;7.70;;;4.13;;
32152;SDS011;18656;50.580;11.392;2023-06-22T10:30:12;9.15;;;4.20;;
32152;SDS011;18656;50.580;11.392;2023-06-22T10:32:39;4.05;;;3.75;;
32152;SDS011;18656;50.580;11.392;2023-06-22T10:35:07;3.95;;;3.63;;
32152;SDS011;18656;50.580;11.392;2023-06-22T10:37:35;6.63;;;3.80;;
32152;SDS011;18656;50.580;11.392;2023-06-22T10:40:03;8.63;;;3.90;;
32152;SDS011;18656;50.580;11.392;2023-06-22T10:42:30;4.55;;;3.88;;
32152;SDS011;18656;50.580;11.392;2023-06-22T10:44:58;5.57;;;3.22;;
32152;SDS011;18656;50.580;11.392;2023-06-22T10:47:29;3.80;;;3.50;;
32152;SDS011;18656;50.580;11.392;2023-06-22T10:49:57;3.70;;;3.40;;
32152;SDS011;18656;50.580;11.392;2023-06-22T10:52:24;3.20;;;2.97;;
32152;SDS011;18656;50.580;11.392;2023-06-22T10:54:51;2.95;;;2.75;;
32152;SDS011;18656;50.580;11.392;2023-06-22T10:57:18;3.50;;;3.30;;
32152;SDS011;18656;50.580;11.392;2023-06-22T10:59:46;4.13;;;3.25;;
32152;SDS011;18656;50.580;11.392;2023-06-22T11:02:13;3.95;;;3.65;;
32152;SDS011;18656;50.580;11.392;2023-06-22T11:04:40;3.90;;;3.60;;
32152;SDS011;18656;50.580;11.392;2023-06-22T11:07:08;6.32;;;3.30;;
32152;SDS011;18656;50.580;11.392;2023-06-22T11:09:36;3.60;;;3.30;;
32152;SDS011;18656;50.580;11.392;2023-06-22T11:12:05;4.03;;;3.72;;
32152;SDS011;18656;50.580;11.392;2023-06-22T11:14:32;5.72;;;4.20;;
32152;SDS011;18656;50.580;11.392;2023-06-22T11:16:59;3.65;;;3.35;;
32152;SDS011;18656;50.580;11.392;2023-06-22T11:19:27;3.95;;;3.75;;
32152;SDS011;18656;50.580;11.392;2023-06-22T11:21:54;4.43;;;3.95;;
32152;SDS011;18656;50.580;11.392;2023-06-22T11:24:21;4.00;;;3.80;;
32152;SDS011;18656;50.580;11.392;2023-06-22T11:26:49;3.97;;;3.72;;
32152;SDS011;18656;50.580;11.392;2023-06-22T11:29:16;5.00;;;4.30;;
32152;SDS011;18656;50.580;11.392;2023-06-22T11:32:02;4.68;;;3.85;;
32152;SDS011;18656;50.580;11.392;2023-06-22T11:34:29;7.22;;;4.10;;
32152;SDS011;18656;50.580;11.392;2023-06-22T11:36:57;4.13;;;3.80;;
32152;SDS011;18656;50.580;11.392;2023-06-22T11:39:24;7.60;;;3.70;;
32152;SDS011;18656;50.580;11.392;2023-06-22T11:42:06;14.40;;;4.28;;
32152;SDS011;18656;50.580;11.392;2023-06-22T11:44:34;3.60;;;3.40;;
32152;SDS011;18656;50.580;11.392;2023-06-22T11:47:01;8.43;;;4.05;;
32152;SDS011;18656;50.580;11.392;2023-06-22T11:49:30;8.00;;;4.28;;
32152;SDS011;18656;50.580;11.392;2023-06-22T11:51:58;7.55;;;4.00;;
32152;SDS011;18656;50.580;11.392;2023-06-22T11:54:25;3.95;;;3.55;;
32152;SDS011;18656;50.580;11.392;2023-06-22T11:56:53;4.75;;;4.03;;
32152;SDS011;18656;50.580;11.392;2023-06-22T11:59:20;4.38;;;3.97;;
32152;SDS011;18656;50.580;11.392;2023-06-22T12:01:48;6.68;;;3.50;;
32152;SDS011;18656;50.580;11.392;2023-06-22T12:04:17;8.75;;;4.47;;
32152;SDS011;18656;50.580;11.392;2023-06-22T12:06:44;11.07;;;4.20;;
32152;SDS011;18656;50.580;11.392;2023-06-22T12:09:12;4.22;;;3.88;;
32152;SDS011;18656;50.580;11.392;2023-06-22T12:11:40;6.43;;;4.00;;
32152;SDS011;18656;50.580;11.392;2023-06-22T12:14:07;4.07;;;3.72;;
32152;SDS011;18656;50.580;11.392;2023-06-22T12:16:34;5.25;;;3.97;;
32152;SDS011;18656;50.580;11.392;2023-06-22T12:19:01;4.25;;;3.95;;
32152;SDS011;18656;50.580;11.392;2023-06-22T12:21:29;7.15;;;4.47;;
32152;SDS011;18656;50.580;11.392;2023-06-22T12:23:56;5.57;;;3.80;;
32152;SDS011;18656;50.580;11.392;2023-06-22T12:26:23;4.43;;;3.75;;
32152;SDS011;18656;50.580;11.392;2023-06-22T12:28:50;8.57;;;4.25;;
32152;SDS011;18656;50.580;11.392;2023-06-22T12:31:18;4.60;;;4.20;;
32152;SDS011;18656;50.580;11.392;2023-06-22T12:33:45;6.25;;;4.13;;
32152;SDS011;18656;50.580;11.392;2023-06-22T12:36:12;4.68;;;4.00;;
32152;SDS011;18656;50.580;11.392;2023-06-22T12:38:39;4.10;;;3.80;;
32152;SDS011;18656;50.580;11.392;2023-06-22T12:41:07;6.32;;;4.25;;
32152;SDS011;18656;50.580;11.392;2023-06-22T12:43:34;5.90;;;4.22;;
32152;SDS011;18656;50.580;11.392;2023-06-22T12:46:01;4.32;;;3.75;;
32152;SDS011;18656;50.580;11.392;2023-06-22T12:48:28;5.75;;;4.53;;
32152;SDS011;18656;50.580;11.392;2023-06-22T12:50:56;9.05;;;6.32;;
32152;SDS011;18656;50.580;11.392;2023-06-22T12:53:23;7.57;;;4.07;;
32152;SDS011;18656;50.580;11.392;2023-06-22T12:55:50;5.43;;;4.53;;
32152;SDS011;18656;50.580;11.392;2023-06-22T12:58:17;6.03;;;3.90;;
32152;SDS011;18656;50.580;11.392;2023-06-22T13:00:45;4.30;;;3.92;;
32152;SDS011;18656;50.580;11.392;2023-06-22T13:03:13;8.40;;;4.57;;
32152;SDS011;18656;50.580;11.392;2023-06-22T13:05:40;8.05;;;4.90;;
32152;SDS011;18656;50.580;11.392;2023-06-22T13:08:07;7.88;;;4.55;;
32152;SDS011;18656;50.580;11.392;2023-06-22T13:10:38;4.57;;;4.15;;
32152;SDS011;18656;50.580;11.392;2023-06-22T13:13:05;4.70;;;4.30;;
32152;SDS011;18656;50.580;11.392;2023-06-22T13:15:32;8.93;;;4.40;;
32152;SDS011;18656;50.580;11.392;2023-06-22T13:18:00;5.22;;;4.30;;
32152;SDS011;18656;50.580;11.392;2023-06-22T13:20:28;6.60;;;4.88;;
32152;SDS011;18656;50.580;11.392;2023-06-22T13:22:55;9.80;;;4.40;;
32152;SDS011;18656;50.580;11.392;2023-06-22T13:25:23;9.45;;;4.35;;
32152;SDS011;18656;50.580;11.392;2023-06-22T13:27:53;7.15;;;4.80;;
32152;SDS011;18656;50.580;11.392;2023-06-22T13:30:22;4.72;;;4.20;;
32152;SDS011;18656;50.580;11.392;2023-06-22T13:32:50;7.30;;;4.07;;
32152;SDS011;18656;50.580;11.392;2023-06-22T13:35:17;8.27;;;4.47;;
32152;SDS011;18656;50.580;11.392;2023-06-22T13:37:44;5.63;;;4.20;;
32152;SDS011;18656;50.580;11.392;2023-06-22T13:40:12;7.28;;;4.38;;
32152;SDS011;18656;50.580;11.392;2023-06-22T13:42:39;6.85;;;4.03;;
32152;SDS011;18656;50.580;11.392;2023-06-22T13:45:07;5.35;;;3.70;;
32152;SDS011;18656;50.580;11.392;2023-06-22T13:47:34;8.32;;;3.60;;
32152;SDS011;18656;50.580;11.392;2023-06-22T13:50:01;4.95;;;4.05;;
32152;SDS011;18656;50.580;11.392;2023-06-22T13:52:29;4.90;;;4.47;;
32152;SDS011;18656;50.580;11.392;2023-06-22T13:54:56;6.80;;;4.55;;
32152;SDS011;18656;50.580;11.392;2023-06-22T13:57:23;7.80;;;4.00;;
32152;SDS011;18656;50.580;11.392;2023-06-22T13:59:51;5.78;;;4.28;;
32152;SDS011;18656;50.580;11.392;2023-06-22T14:02:18;4.35;;;3.90;;
32152;SDS011;18656;50.580;11.392;2023-06-22T14:04:45;6.45;;;4.30;;
32152;SDS011;18656;50.580;11.392;2023-06-22T14:07:13;7.65;;;4.57;;
32152;SDS011;18656;50.580;11.392;2023-06-22T14:09:40;5.28;;;4.00;;
32152;SDS011;18656;50.580;11.392;2023-06-22T14:12:08;4.47;;;3.80;;
32152;SDS011;18656;50.580;11.392;2023-06-22T14:14:38;7.38;;;3.83;;
32152;SDS011;18656;50.580;11.392;2023-06-22T14:17:05;9.43;;;4.15;;
32152;SDS011;18656;50.580;11.392;2023-06-22T14:19:33;6.55;;;4.10;;
32152;SDS011;18656;50.580;11.392;2023-06-22T14:22:00;6.43;;;4.28;;
32152;SDS011;18656;50.580;11.392;2023-06-22T14:24:27;6.80;;;4.15;;
32152;SDS011;18656;50.580;11.392;2023-06-22T14:26:56;8.40;;;4.32;;
32152;SDS011;18656;50.580;11.392;2023-06-22T14:29:24;5.90;;;4.00;;
32152;SDS011;18656;50.580;11.392;2023-06-22T14:31:51;6.95;;;4.07;;
32152;SDS011;18656;50.580;11.392;2023-06-22T14:34:19;9.65;;;4.55;;